Nearby METAR Reports

This page may be slow to load as it queries the National Weather Service for data.

KBIS - Bismarck, North Dakota, USA
Distance from station: S 10mi, 15km
Updated: Fri, 17-Nov-2017 2:52pm CST
Clear
Clear
 Wind from calm
Wind: Calm
Temperature: 36°F , 2°C
Dew Point: 25°F , -4°C
Humidity: 65%
Barometer: 29.70 inHg , 1005.8 hPa
Clouds: Clear
Visibility: 10 miles , 16 km
2017/11/17 20:52 KBIS 172052Z 00000KT 10SM CLR 02/M04 A2970 RMK AO2 SLP074 T00221039 55001
KDIK - Dickinson, North Dakota, USA
Distance from station: W 95mi, 154km
Updated: Fri, 17-Nov-2017 2:56pm CST
Clear
Clear
 Wind from S
Wind: S 6 mph , 9 km/h
Temperature: 43°F , 6°C
Wind Chill: 39°F , 4°C
Dew Point: 25°F , -4°C
Humidity: 49%
Barometer: 29.62 inHg , 1003 hPa
Clouds: Clear
Visibility: 10 miles , 16 km
2017/11/17 20:56 KDIK 172056Z AUTO 18005KT 10SM CLR 06/M04 A2962 RMK AO2 SLP044 T00561044 55004
 
KISN - Williston, North Dakota, USA
Distance from station: NNW 2mi, 2km
Updated: Fri, 17-Nov-2017 2:52pm CST
Clear
Clear
 Wind from calm
Wind: Calm
Temperature: 36°F , 2°C
Dew Point: 18°F , -8°C
Humidity: 48%
Barometer: 29.66 inHg , 1004.4 hPa
Clouds: Clear
Visibility: 10 miles , 16 km
2017/11/17 20:52 KISN 172052Z AUTO 00000KT 10SM CLR 02/M08 A2966 RMK AO2 SLP069 T00171083 55009
KFAR - Fargo, North Dakota, USA
Distance from station: NNW 4mi, 7km
Updated: Fri, 17-Nov-2017 2:53pm CST
Clear
Clear
 Wind from NNW
Wind: NNW 13 mph , 20 km/h
Temperature: 34°F , 1°C
Wind Chill: 25°F , -4°C
Dew Point: 25°F , -4°C
Humidity: 70%
Barometer: 29.67 inHg , 1004.7 hPa
Clouds: Clear
Visibility: 10 miles , 16 km
2017/11/17 20:53 KFAR 172053Z 33011KT 10SM CLR 01/M04 A2967 RMK AO2 SLP059 T00111044 55003
 
KGFK - Grand Forks, North Dakota, USA
Distance from station: NNW 76mi, 123km
Updated: Fri, 17-Nov-2017 2:53pm CST
Mostly cloudy
Mostly cloudy
 Wind from NW
Wind: NW 13 mph , 20 km/h
Temperature: 25°F , -4°C
Wind Chill: 13°F , -11°C
Dew Point: 18°F , -8°C
Humidity: 74%
Barometer: 29.71 inHg , 1006.1 hPa
Clouds: Mostly cloudy
Visibility: 10 miles , 16 km
Cloud details: Partly cloudy 13000 ft
Mostly cloudy 18000 ft
Mostly cloudy 25000 ft
2017/11/17 20:53 KGFK 172053Z 31011KT 10SM SCT130 BKN180 BKN250 M04/M08 A2971 RMK AO2 SLP072 T10391083 53002
KMOT - Minot, North Dakota, USA
Distance from station: E 109mi, 175km
Updated: Fri, 17-Nov-2017 2:54pm CST
Clear
Clear
 Wind from calm
Wind: Calm
Temperature: 27°F , -3°C
Dew Point: 12°F , -11°C
Humidity: 54%
Barometer: 29.68 inHg , 1005.1 hPa
Clouds: Clear
Visibility: 10 miles , 16 km
2017/11/17 20:54 KMOT 172054Z 00000KT 10SM CLR M03/M11 A2968 RMK AO2 SLP072 T10281106 55004